sensor_id;sensor_type;location;lat;lon;timestamp;temperature;humidity
41437;DHT22;27178;49.460;10.850;2023-03-19T00:01:02;13.90;62.10
41437;DHT22;27178;49.460;10.850;2023-03-19T00:03:30;13.90;62.30
41437;DHT22;27178;49.460;10.850;2023-03-19T00:05:59;13.90;62.10
41437;DHT22;27178;49.460;10.850;2023-03-19T00:08:27;13.90;62.30
41437;DHT22;27178;49.460;10.850;2023-03-19T00:10:57;13.90;62.30
41437;DHT22;27178;49.460;10.850;2023-03-19T00:13:26;13.90;62.60
41437;DHT22;27178;49.460;10.850;2023-03-19T00:15:55;13.90;62.60
41437;DHT22;27178;49.460;10.850;2023-03-19T00:18:23;13.90;62.60
41437;DHT22;27178;49.460;10.850;2023-03-19T00:20:52;13.90;62.60
41437;DHT22;27178;49.460;10.850;2023-03-19T00:23:20;13.90;62.60
41437;DHT22;27178;49.460;10.850;2023-03-19T00:25:48;13.90;62.60
41437;DHT22;27178;49.460;10.850;2023-03-19T00:28:18;13.90;62.80
41437;DHT22;27178;49.460;10.850;2023-03-19T00:30:47;13.90;62.80
41437;DHT22;27178;49.460;10.850;2023-03-19T00:33:15;13.80;62.60
41437;DHT22;27178;49.460;10.850;2023-03-19T00:35:43;13.80;62.70
41437;DHT22;27178;49.460;10.850;2023-03-19T00:38:12;13.80;62.70
41437;DHT22;27178;49.460;10.850;2023-03-19T00:40:40;13.80;62.90
41437;DHT22;27178;49.460;10.850;2023-03-19T00:43:08;13.70;63.00
41437;DHT22;27178;49.460;10.850;2023-03-19T00:45:39;13.70;63.10
41437;DHT22;27178;49.460;10.850;2023-03-19T00:48:07;13.70;63.40
41437;DHT22;27178;49.460;10.850;2023-03-19T00:50:36;13.60;63.30
41437;DHT22;27178;49.460;10.850;2023-03-19T00:53:04;13.60;63.40
41437;DHT22;27178;49.460;10.850;2023-03-19T00:55:33;13.60;63.40
41437;DHT22;27178;49.460;10.850;2023-03-19T00:58:01;13.60;63.50
41437;DHT22;27178;49.460;10.850;2023-03-19T01:00:29;13.60;63.70
41437;DHT22;27178;49.460;10.850;2023-03-19T01:03:00;13.50;63.70
41437;DHT22;27178;49.460;10.850;2023-03-19T01:05:28;13.50;63.90
41437;DHT22;27178;49.460;10.850;2023-03-19T01:07:57;13.50;63.90
41437;DHT22;27178;49.460;10.850;2023-03-19T01:10:25;13.50;64.10
41437;DHT22;27178;49.460;10.850;2023-03-19T01:12:54;13.50;64.20
41437;DHT22;27178;49.460;10.850;2023-03-19T01:15:23;13.50;64.30
41437;DHT22;27178;49.460;10.850;2023-03-19T01:17:51;13.50;64.30
41437;DHT22;27178;49.460;10.850;2023-03-19T01:20:21;13.50;64.40
41437;DHT22;27178;49.460;10.850;2023-03-19T01:22:50;13.50;64.50
41437;DHT22;27178;49.460;10.850;2023-03-19T01:25:18;13.50;65.50
41437;DHT22;27178;49.460;10.850;2023-03-19T01:27:47;11.90;63.60
41437;DHT22;27178;49.460;10.850;2023-03-19T01:30:15;13.50;64.70
41437;DHT22;27178;49.460;10.850;2023-03-19T01:32:44;13.50;64.70
41437;DHT22;27178;49.460;10.850;2023-03-19T01:35:13;13.50;64.70
41437;DHT22;27178;49.460;10.850;2023-03-19T01:37:43;13.50;64.60
41437;DHT22;27178;49.460;10.850;2023-03-19T01:40:13;13.40;64.40
41437;DHT22;27178;49.460;10.850;2023-03-19T01:42:55;13.40;64.40
41437;DHT22;27178;49.460;10.850;2023-03-19T01:45:31;13.40;65.00
41437;DHT22;27178;49.460;10.850;2023-03-19T01:48:00;13.30;64.80
41437;DHT22;27178;49.460;10.850;2023-03-19T01:50:33;13.30;64.70
41437;DHT22;27178;49.460;10.850;2023-03-19T01:53:05;13.20;65.00
41437;DHT22;27178;49.460;10.850;2023-03-19T01:55:38;13.20;65.00
41437;DHT22;27178;49.460;10.850;2023-03-19T01:58:08;13.20;65.10
41437;DHT22;27178;49.460;10.850;2023-03-19T02:00:37;13.20;65.20
41437;DHT22;27178;49.460;10.850;2023-03-19T02:03:06;13.10;65.20
41437;DHT22;27178;49.460;10.850;2023-03-19T02:05:36;13.10;65.30
41437;DHT22;27178;49.460;10.850;2023-03-19T02:08:09;13.10;65.40
41437;DHT22;27178;49.460;10.850;2023-03-19T02:10:39;13.00;65.60
41437;DHT22;27178;49.460;10.850;2023-03-19T02:13:07;13.00;65.60
41437;DHT22;27178;49.460;10.850;2023-03-19T02:15:36;13.00;65.60
41437;DHT22;27178;49.460;10.850;2023-03-19T02:18:06;13.00;65.70
41437;DHT22;27178;49.460;10.850;2023-03-19T02:20:42;13.00;65.90
41437;DHT22;27178;49.460;10.850;2023-03-19T02:23:20;13.00;66.10
41437;DHT22;27178;49.460;10.850;2023-03-19T02:26:08;12.90;66.30
41437;DHT22;27178;49.460;10.850;2023-03-19T02:28:38;12.90;66.50
41437;DHT22;27178;49.460;10.850;2023-03-19T02:31:09;12.90;66.20
41437;DHT22;27178;49.460;10.850;2023-03-19T02:33:38;13.00;66.30
41437;DHT22;27178;49.460;10.850;2023-03-19T02:36:11;13.00;66.40
41437;DHT22;27178;49.460;10.850;2023-03-19T02:38:41;12.90;66.30
41437;DHT22;27178;49.460;10.850;2023-03-19T02:41:11;13.00;66.30
41437;DHT22;27178;49.460;10.850;2023-03-19T02:43:40;12.90;66.50
41437;DHT22;27178;49.460;10.850;2023-03-19T02:46:11;12.90;67.40
41437;DHT22;27178;49.460;10.850;2023-03-19T02:48:40;12.90;66.70
41437;DHT22;27178;49.460;10.850;2023-03-19T02:51:08;12.90;66.60
41437;DHT22;27178;49.460;10.850;2023-03-19T02:53:37;12.90;66.70
41437;DHT22;27178;49.460;10.850;2023-03-19T02:56:05;12.90;66.70
41437;DHT22;27178;49.460;10.850;2023-03-19T02:58:35;12.90;66.90
41437;DHT22;27178;49.460;10.850;2023-03-19T03:01:04;12.90;66.80
41437;DHT22;27178;49.460;10.850;2023-03-19T03:03:33;12.90;66.60
41437;DHT22;27178;49.460;10.850;2023-03-19T03:06:01;12.90;66.50
41437;DHT22;27178;49.460;10.850;2023-03-19T03:08:30;12.90;66.50
41437;DHT22;27178;49.460;10.850;2023-03-19T03:10:59;12.90;66.40
41437;DHT22;27178;49.460;10.850;2023-03-19T03:13:28;12.80;66.40
41437;DHT22;27178;49.460;10.850;2023-03-19T03:15:57;12.80;66.50
41437;DHT22;27178;49.460;10.850;2023-03-19T03:18:25;12.70;66.80
41437;DHT22;27178;49.460;10.850;2023-03-19T03:20:54;12.60;66.90
41437;DHT22;27178;49.460;10.850;2023-03-19T03:23:23;12.60;67.10
41437;DHT22;27178;49.460;10.850;2023-03-19T03:25:51;12.60;67.30
41437;DHT22;27178;49.460;10.850;2023-03-19T03:28:19;12.60;67.50
41437;DHT22;27178;49.460;10.850;2023-03-19T03:30:48;12.60;67.50
41437;DHT22;27178;49.460;10.850;2023-03-19T03:33:17;12.60;67.50
41437;DHT22;27178;49.460;10.850;2023-03-19T03:35:46;12.60;67.70
41437;DHT22;27178;49.460;10.850;2023-03-19T03:38:14;12.60;67.50
41437;DHT22;27178;49.460;10.850;2023-03-19T03:40:43;12.70;67.70
41437;DHT22;27178;49.460;10.850;2023-03-19T03:43:12;12.70;67.70
41437;DHT22;27178;49.460;10.850;2023-03-19T03:45:42;12.70;67.70
41437;DHT22;27178;49.460;10.850;2023-03-19T03:48:11;12.80;67.70
41437;DHT22;27178;49.460;10.850;2023-03-19T03:50:40;12.80;67.60
41437;DHT22;27178;49.460;10.850;2023-03-19T03:53:09;12.80;67.60
41437;DHT22;27178;49.460;10.850;2023-03-19T03:55:38;12.90;67.60
41437;DHT22;27178;49.460;10.850;2023-03-19T03:58:07;12.90;67.60
41437;DHT22;27178;49.460;10.850;2023-03-19T04:00:36;12.90;67.40
41437;DHT22;27178;49.460;10.850;2023-03-19T04:03:04;13.00;67.40
41437;DHT22;27178;49.460;10.850;2023-03-19T04:05:33;13.00;67.30
41437;DHT22;27178;49.460;10.850;2023-03-19T04:08:05;13.00;67.20
41437;DHT22;27178;49.460;10.850;2023-03-19T04:10:34;13.00;67.20
41437;DHT22;27178;49.460;10.850;2023-03-19T04:13:02;13.10;67.10
41437;DHT22;27178;49.460;10.850;2023-03-19T04:15:31;13.10;67.00
41437;DHT22;27178;49.460;10.850;2023-03-19T04:17:59;13.10;66.90
41437;DHT22;27178;49.460;10.850;2023-03-19T04:20:28;13.20;66.90
41437;DHT22;27178;49.460;10.850;2023-03-19T04:22:56;13.20;67.10
41437;DHT22;27178;49.460;10.850;2023-03-19T04:25:26;13.20;67.10
41437;DHT22;27178;49.460;10.850;2023-03-19T04:27:56;13.20;67.20
41437;DHT22;27178;49.460;10.850;2023-03-19T04:30:24;13.10;67.00
41437;DHT22;27178;49.460;10.850;2023-03-19T04:32:53;13.10;67.10
41437;DHT22;27178;49.460;10.850;2023-03-19T04:35:23;13.10;67.20
41437;DHT22;27178;49.460;10.850;2023-03-19T04:37:51;13.10;67.30
41437;DHT22;27178;49.460;10.850;2023-03-19T04:40:20;13.10;67.20
41437;DHT22;27178;49.460;10.850;2023-03-19T04:42:49;13.10;67.20
41437;DHT22;27178;49.460;10.850;2023-03-19T04:45:18;13.10;67.10
41437;DHT22;27178;49.460;10.850;2023-03-19T04:47:46;13.10;67.10
41437;DHT22;27178;49.460;10.850;2023-03-19T04:50:15;13.10;67.00
41437;DHT22;27178;49.460;10.850;2023-03-19T04:52:44;13.10;67.10
41437;DHT22;27178;49.460;10.850;2023-03-19T04:55:12;13.10;66.90
41437;DHT22;27178;49.460;10.850;2023-03-19T04:57:40;13.10;67.00
41437;DHT22;27178;49.460;10.850;2023-03-19T05:00:12;13.10;66.90
41437;DHT22;27178;49.460;10.850;2023-03-19T05:02:42;13.10;66.70
41437;DHT22;27178;49.460;10.850;2023-03-19T05:05:10;13.20;66.70
41437;DHT22;27178;49.460;10.850;2023-03-19T05:07:40;13.20;66.70
41437;DHT22;27178;49.460;10.850;2023-03-19T05:10:09;13.20;66.50
41437;DHT22;27178;49.460;10.850;2023-03-19T05:12:38;13.20;66.50
41437;DHT22;27178;49.460;10.850;2023-03-19T05:15:07;13.20;66.40
41437;DHT22;27178;49.460;10.850;2023-03-19T05:17:37;13.30;66.20
41437;DHT22;27178;49.460;10.850;2023-03-19T05:20:06;13.30;66.30
41437;DHT22;27178;49.460;10.850;2023-03-19T05:22:35;13.30;66.30
41437;DHT22;27178;49.460;10.850;2023-03-19T05:25:04;13.30;66.10
41437;DHT22;27178;49.460;10.850;2023-03-19T05:27:33;13.30;66.00
41437;DHT22;27178;49.460;10.850;2023-03-19T05:30:01;13.40;66.10
41437;DHT22;27178;49.460;10.850;2023-03-19T05:32:29;13.40;66.10
41437;DHT22;27178;49.460;10.850;2023-03-19T05:34:59;13.40;66.20
41437;DHT22;27178;49.460;10.850;2023-03-19T05:37:27;13.40;66.10
41437;DHT22;27178;49.460;10.850;2023-03-19T05:39:56;13.40;66.30
41437;DHT22;27178;49.460;10.850;2023-03-19T05:42:24;13.40;66.20
41437;DHT22;27178;49.460;10.850;2023-03-19T05:44:53;13.40;66.00
41437;DHT22;27178;49.460;10.850;2023-03-19T05:47:21;13.40;66.00
41437;DHT22;27178;49.460;10.850;2023-03-19T05:49:50;13.40;66.10
41437;DHT22;27178;49.460;10.850;2023-03-19T05:52:19;13.40;66.30
41437;DHT22;27178;49.460;10.850;2023-03-19T05:54:48;13.40;66.40
41437;DHT22;27178;49.460;10.850;2023-03-19T05:57:16;13.40;66.40
41437;DHT22;27178;49.460;10.850;2023-03-19T05:59:48;13.50;66.60
41437;DHT22;27178;49.460;10.850;2023-03-19T06:02:16;13.50;66.60
41437;DHT22;27178;49.460;10.850;2023-03-19T06:04:45;13.40;66.50
41437;DHT22;27178;49.460;10.850;2023-03-19T06:07:13;13.40;66.50
41437;DHT22;27178;49.460;10.850;2023-03-19T06:09:43;13.40;66.50
41437;DHT22;27178;49.460;10.850;2023-03-19T06:12:12;13.40;66.70
41437;DHT22;27178;49.460;10.850;2023-03-19T06:14:42;13.40;66.60
41437;DHT22;27178;49.460;10.850;2023-03-19T06:17:10;13.40;66.70
41437;DHT22;27178;49.460;10.850;2023-03-19T06:19:39;13.40;66.70
41437;DHT22;27178;49.460;10.850;2023-03-19T06:22:08;13.40;66.80
41437;DHT22;27178;49.460;10.850;2023-03-19T06:24:36;13.40;66.90
41437;DHT22;27178;49.460;10.850;2023-03-19T06:27:06;13.40;67.10
41437;DHT22;27178;49.460;10.850;2023-03-19T06:29:35;13.40;67.20
41437;DHT22;27178;49.460;10.850;2023-03-19T06:32:04;13.40;67.30
41437;DHT22;27178;49.460;10.850;2023-03-19T06:34:33;13.50;67.40
41437;DHT22;27178;49.460;10.850;2023-03-19T06:37:01;13.40;67.40
41437;DHT22;27178;49.460;10.850;2023-03-19T06:39:30;13.50;67.60
41437;DHT22;27178;49.460;10.850;2023-03-19T06:41:59;13.50;67.60
41437;DHT22;27178;49.460;10.850;2023-03-19T06:44:29;13.50;67.70
41437;DHT22;27178;49.460;10.850;2023-03-19T06:46:57;13.50;67.90
41437;DHT22;27178;49.460;10.850;2023-03-19T06:49:26;13.50;68.00
41437;DHT22;27178;49.460;10.850;2023-03-19T06:51:54;13.50;68.10
41437;DHT22;27178;49.460;10.850;2023-03-19T06:54:22;13.50;68.20
41437;DHT22;27178;49.460;10.850;2023-03-19T06:56:51;13.50;68.40
41437;DHT22;27178;49.460;10.850;2023-03-19T06:59:19;13.50;68.60
41437;DHT22;27178;49.460;10.850;2023-03-19T07:01:49;13.50;68.60
41437;DHT22;27178;49.460;10.850;2023-03-19T07:04:18;13.50;68.70
41437;DHT22;27178;49.460;10.850;2023-03-19T07:06:47;13.50;68.90
41437;DHT22;27178;49.460;10.850;2023-03-19T07:09:15;13.50;68.90
41437;DHT22;27178;49.460;10.850;2023-03-19T07:11:44;13.60;69.10
41437;DHT22;27178;49.460;10.850;2023-03-19T07:14:12;13.50;69.20
41437;DHT22;27178;49.460;10.850;2023-03-19T07:16:40;13.60;69.50
41437;DHT22;27178;49.460;10.850;2023-03-19T07:19:10;13.60;69.80
41437;DHT22;27178;49.460;10.850;2023-03-19T07:21:38;13.50;69.70
41437;DHT22;27178;49.460;10.850;2023-03-19T07:24:06;13.50;69.70
41437;DHT22;27178;49.460;10.850;2023-03-19T07:26:35;13.60;70.00
41437;DHT22;27178;49.460;10.850;2023-03-19T07:29:03;13.60;70.10
41437;DHT22;27178;49.460;10.850;2023-03-19T07:31:32;13.60;70.40
41437;DHT22;27178;49.460;10.850;2023-03-19T07:34:00;13.60;70.40
41437;DHT22;27178;49.460;10.850;2023-03-19T07:36:30;13.60;70.50
41437;DHT22;27178;49.460;10.850;2023-03-19T07:38:58;13.60;70.70
41437;DHT22;27178;49.460;10.850;2023-03-19T07:41:27;13.60;70.70
41437;DHT22;27178;49.460;10.850;2023-03-19T07:43:55;13.60;71.00
41437;DHT22;27178;49.460;10.850;2023-03-19T07:46:24;13.60;71.10
41437;DHT22;27178;49.460;10.850;2023-03-19T07:48:52;13.60;71.30
41437;DHT22;27178;49.460;10.850;2023-03-19T07:51:21;13.60;71.40
41437;DHT22;27178;49.460;10.850;2023-03-19T07:53:50;13.60;71.50
41437;DHT22;27178;49.460;10.850;2023-03-19T07:56:19;13.60;71.60
41437;DHT22;27178;49.460;10.850;2023-03-19T07:58:47;13.60;71.70
41437;DHT22;27178;49.460;10.850;2023-03-19T08:01:15;13.60;71.80
41437;DHT22;27178;49.460;10.850;2023-03-19T08:03:43;13.60;72.30
41437;DHT22;27178;49.460;10.850;2023-03-19T08:06:11;13.60;72.30
41437;DHT22;27178;49.460;10.850;2023-03-19T08:08:40;13.60;72.30
41437;DHT22;27178;49.460;10.850;2023-03-19T08:11:09;13.60;72.60
41437;DHT22;27178;49.460;10.850;2023-03-19T08:13:38;13.60;72.80
41437;DHT22;27178;49.460;10.850;2023-03-19T08:16:06;13.60;73.00
41437;DHT22;27178;49.460;10.850;2023-03-19T08:18:35;13.60;73.00
41437;DHT22;27178;49.460;10.850;2023-03-19T08:21:03;13.60;73.00
41437;DHT22;27178;49.460;10.850;2023-03-19T08:23:32;13.60;73.00
41437;DHT22;27178;49.460;10.850;2023-03-19T08:26:01;13.50;73.00
41437;DHT22;27178;49.460;10.850;2023-03-19T08:28:31;13.50;73.40
41437;DHT22;27178;49.460;10.850;2023-03-19T08:31:05;13.50;73.70
41437;DHT22;27178;49.460;10.850;2023-03-19T08:33:34;13.50;74.00
41437;DHT22;27178;49.460;10.850;2023-03-19T08:36:06;13.60;73.80
41437;DHT22;27178;49.460;10.850;2023-03-19T08:38:35;13.60;74.20
41437;DHT22;27178;49.460;10.850;2023-03-19T08:41:05;13.60;74.10
41437;DHT22;27178;49.460;10.850;2023-03-19T08:43:35;13.50;74.10
41437;DHT22;27178;49.460;10.850;2023-03-19T08:46:04;13.60;74.30
41437;DHT22;27178;49.460;10.850;2023-03-19T08:48:33;13.50;74.20
41437;DHT22;27178;49.460;10.850;2023-03-19T08:51:02;13.50;74.20
41437;DHT22;27178;49.460;10.850;2023-03-19T08:53:31;13.50;74.40
41437;DHT22;27178;49.460;10.850;2023-03-19T08:56:01;13.50;74.70
41437;DHT22;27178;49.460;10.850;2023-03-19T08:58:30;13.60;75.00
41437;DHT22;27178;49.460;10.850;2023-03-19T09:01:05;13.50;74.70
41437;DHT22;27178;49.460;10.850;2023-03-19T09:03:34;13.50;74.70
41437;DHT22;27178;49.460;10.850;2023-03-19T09:06:04;13.30;74.50
41437;DHT22;27178;49.460;10.850;2023-03-19T09:08:33;13.50;75.30
41437;DHT22;27178;49.460;10.850;2023-03-19T09:11:02;13.50;75.80
41437;DHT22;27178;49.460;10.850;2023-03-19T09:13:33;13.60;76.00
41437;DHT22;27178;49.460;10.850;2023-03-19T09:16:04;13.60;76.00
41437;DHT22;27178;49.460;10.850;2023-03-19T09:18:32;13.60;75.80
41437;DHT22;27178;49.460;10.850;2023-03-19T09:21:01;13.60;75.50
41437;DHT22;27178;49.460;10.850;2023-03-19T09:23:29;13.60;75.50
41437;DHT22;27178;49.460;10.850;2023-03-19T09:25:57;13.70;75.70
41437;DHT22;27178;49.460;10.850;2023-03-19T09:28:25;13.70;75.80
41437;DHT22;27178;49.460;10.850;2023-03-19T09:30:53;13.70;76.10
41437;DHT22;27178;49.460;10.850;2023-03-19T09:33:23;13.70;76.00
41437;DHT22;27178;49.460;10.850;2023-03-19T09:35:53;13.70;75.80
41437;DHT22;27178;49.460;10.850;2023-03-19T09:38:21;13.70;75.70
41437;DHT22;27178;49.460;10.850;2023-03-19T09:41:00;13.70;75.80
41437;DHT22;27178;49.460;10.850;2023-03-19T09:43:55;13.80;76.10
41437;DHT22;27178;49.460;10.850;2023-03-19T09:46:31;13.80;76.30
41437;DHT22;27178;49.460;10.850;2023-03-19T09:49:05;13.90;76.20
41437;DHT22;27178;49.460;10.850;2023-03-19T09:51:40;13.90;76.30
41437;DHT22;27178;49.460;10.850;2023-03-19T09:54:20;13.90;76.50
41437;DHT22;27178;49.460;10.850;2023-03-19T09:56:50;13.90;76.40
41437;DHT22;27178;49.460;10.850;2023-03-19T09:59:20;13.90;75.90
41437;DHT22;27178;49.460;10.850;2023-03-19T10:01:56;14.00;76.10
41437;DHT22;27178;49.460;10.850;2023-03-19T10:04:40;14.00;76.10
41437;DHT22;27178;49.460;10.850;2023-03-19T10:07:22;14.00;76.70
41437;DHT22;27178;49.460;10.850;2023-03-19T10:10:02;14.00;76.70
41437;DHT22;27178;49.460;10.850;2023-03-19T10:12:44;14.10;77.80
41437;DHT22;27178;49.460;10.850;2023-03-19T10:15:19;14.10;78.10
41437;DHT22;27178;49.460;10.850;2023-03-19T10:17:55;14.10;77.80
41437;DHT22;27178;49.460;10.850;2023-03-19T10:20:35;14.10;77.50
41437;DHT22;27178;49.460;10.850;2023-03-19T10:23:21;14.10;78.40
41437;DHT22;27178;49.460;10.850;2023-03-19T10:25:55;14.20;77.80
41437;DHT22;27178;49.460;10.850;2023-03-19T10:28:26;14.20;77.90
41437;DHT22;27178;49.460;10.850;2023-03-19T10:31:12;14.20;78.40
41437;DHT22;27178;49.460;10.850;2023-03-19T10:33:43;14.20;79.30
41437;DHT22;27178;49.460;10.850;2023-03-19T10:36:13;14.20;78.20
41437;DHT22;27178;49.460;10.850;2023-03-19T10:38:43;14.20;78.10
41437;DHT22;27178;49.460;10.850;2023-03-19T10:41:25;14.30;78.20
41437;DHT22;27178;49.460;10.850;2023-03-19T10:43:59;14.30;78.40
41437;DHT22;27178;49.460;10.850;2023-03-19T10:46:36;14.30;78.60
41437;DHT22;27178;49.460;10.850;2023-03-19T10:49:10;14.40;78.50
41437;DHT22;27178;49.460;10.850;2023-03-19T10:51:42;14.40;78.30
41437;DHT22;27178;49.460;10.850;2023-03-19T10:54:22;14.50;77.90
41437;DHT22;27178;49.460;10.850;2023-03-19T10:56:54;14.50;77.80
41437;DHT22;27178;49.460;10.850;2023-03-19T10:59:24;14.60;78.10
41437;DHT22;27178;49.460;10.850;2023-03-19T11:01:58;14.60;78.00
41437;DHT22;27178;49.460;10.850;2023-03-19T11:04:27;14.60;78.40
41437;DHT22;27178;49.460;10.850;2023-03-19T11:07:04;14.70;77.90
41437;DHT22;27178;49.460;10.850;2023-03-19T11:09:36;14.70;77.50
41437;DHT22;27178;49.460;10.850;2023-03-19T11:12:07;14.80;77.60
41437;DHT22;27178;49.460;10.850;2023-03-19T11:14:42;14.80;77.60
41437;DHT22;27178;49.460;10.850;2023-03-19T11:17:19;14.90;77.60
41437;DHT22;27178;49.460;10.850;2023-03-19T11:19:52;15.00;78.10
41437;DHT22;27178;49.460;10.850;2023-03-19T11:22:24;15.00;77.70
41437;DHT22;27178;49.460;10.850;2023-03-19T11:24:55;15.10;77.50
41437;DHT22;27178;49.460;10.850;2023-03-19T11:27:29;15.20;79.00
41437;DHT22;27178;49.460;10.850;2023-03-19T11:29:57;15.30;77.70
41437;DHT22;27178;49.460;10.850;2023-03-19T11:32:55;15.40;77.00
41437;DHT22;27178;49.460;10.850;2023-03-19T11:35:28;15.50;77.10
41437;DHT22;27178;49.460;10.850;2023-03-19T11:38:02;15.60;77.00
41437;DHT22;27178;49.460;10.850;2023-03-19T11:40:36;15.60;76.40
41437;DHT22;27178;49.460;10.850;2023-03-19T11:46:09;15.80;75.70
41437;DHT22;27178;49.460;10.850;2023-03-19T11:48:52;15.90;75.50
41437;DHT22;27178;49.460;10.850;2023-03-19T11:51:28;16.00;75.90
41437;DHT22;27178;49.460;10.850;2023-03-19T11:54:04;16.00;75.40
41437;DHT22;27178;49.460;10.850;2023-03-19T11:56:41;16.10;75.60
41437;DHT22;27178;49.460;10.850;2023-03-19T11:59:31;16.20;76.60
41437;DHT22;27178;49.460;10.850;2023-03-19T12:02:27;16.40;77.20
41437;DHT22;27178;49.460;10.850;2023-03-19T12:05:11;16.60;76.90
41437;DHT22;27178;49.460;10.850;2023-03-19T12:07:48;16.80;75.90
41437;DHT22;27178;49.460;10.850;2023-03-19T12:10:30;16.90;75.50
41437;DHT22;27178;49.460;10.850;2023-03-19T12:13:07;17.10;75.00
41437;DHT22;27178;49.460;10.850;2023-03-19T12:15:46;17.20;73.80
41437;DHT22;27178;49.460;10.850;2023-03-19T12:18:28;17.20;74.30
41437;DHT22;27178;49.460;10.850;2023-03-19T12:21:08;17.30;73.00
41437;DHT22;27178;49.460;10.850;2023-03-19T12:23:57;17.40;73.00
41437;DHT22;27178;49.460;10.850;2023-03-19T12:26:33;17.50;73.30
41437;DHT22;27178;49.460;10.850;2023-03-19T12:29:09;17.70;73.00
41437;DHT22;27178;49.460;10.850;2023-03-19T12:32:02;17.80;73.20
41437;DHT22;27178;49.460;10.850;2023-03-19T12:34:38;18.00;72.70
41437;DHT22;27178;49.460;10.850;2023-03-19T12:37:15;18.20;72.70
41437;DHT22;27178;49.460;10.850;2023-03-19T12:39:51;18.40;72.00
41437;DHT22;27178;49.460;10.850;2023-03-19T12:42:33;18.60;71.50
41437;DHT22;27178;49.460;10.850;2023-03-19T12:45:15;18.80;70.60
41437;DHT22;27178;49.460;10.850;2023-03-19T12:47:47;19.00;70.10
41437;DHT22;27178;49.460;10.850;2023-03-19T12:50:17;19.20;70.10
41437;DHT22;27178;49.460;10.850;2023-03-19T12:52:49;19.30;69.40
41437;DHT22;27178;49.460;10.850;2023-03-19T12:55:19;19.50;69.00
41437;DHT22;27178;49.460;10.850;2023-03-19T12:57:52;19.60;68.70
41437;DHT22;27178;49.460;10.850;2023-03-19T13:00:25;19.70;68.30
41437;DHT22;27178;49.460;10.850;2023-03-19T13:02:59;19.90;68.10
41437;DHT22;27178;49.460;10.850;2023-03-19T13:05:34;20.10;67.90
41437;DHT22;27178;49.460;10.850;2023-03-19T13:08:10;20.20;67.30
41437;DHT22;27178;49.460;10.850;2023-03-19T13:10:40;20.40;66.40
41437;DHT22;27178;49.460;10.850;2023-03-19T13:13:21;20.50;66.00
41437;DHT22;27178;49.460;10.850;2023-03-19T13:15:55;20.60;65.20
41437;DHT22;27178;49.460;10.850;2023-03-19T13:18:34;20.70;65.40
41437;DHT22;27178;49.460;10.850;2023-03-19T13:21:19;20.80;64.60
41437;DHT22;27178;49.460;10.850;2023-03-19T13:23:59;20.90;64.20
41437;DHT22;27178;49.460;10.850;2023-03-19T13:26:29;20.90;63.90
41437;DHT22;27178;49.460;10.850;2023-03-19T13:29:02;20.90;64.00
41437;DHT22;27178;49.460;10.850;2023-03-19T13:31:35;20.90;63.20
41437;DHT22;27178;49.460;10.850;2023-03-19T13:34:06;21.00;63.20
41437;DHT22;27178;49.460;10.850;2023-03-19T13:36:50;21.00;63.60
41437;DHT22;27178;49.460;10.850;2023-03-19T13:39:23;21.10;63.60
41437;DHT22;27178;49.460;10.850;2023-03-19T13:42:08;21.20;63.30
41437;DHT22;27178;49.460;10.850;2023-03-19T13:44:42;21.40;61.60
41437;DHT22;27178;49.460;10.850;2023-03-19T13:47:49;21.40;61.90
41437;DHT22;27178;49.460;10.850;2023-03-19T13:50:29;21.60;61.10
41437;DHT22;27178;49.460;10.850;2023-03-19T13:53:37;21.70;60.40
41437;DHT22;27178;49.460;10.850;2023-03-19T13:56:09;21.80;60.20
41437;DHT22;27178;49.460;10.850;2023-03-19T13:59:22;21.90;60.00
41437;DHT22;27178;49.460;10.850;2023-03-19T14:01:52;22.00;59.70
41437;DHT22;27178;49.460;10.850;2023-03-19T14:04:24;22.10;60.20
41437;DHT22;27178;49.460;10.850;2023-03-19T14:06:55;22.20;60.00
41437;DHT22;27178;49.460;10.850;2023-03-19T14:09:31;22.30;59.70
41437;DHT22;27178;49.460;10.850;2023-03-19T14:12:19;22.30;58.90
41437;DHT22;27178;49.460;10.850;2023-03-19T14:14:50;22.30;58.50
41437;DHT22;27178;49.460;10.850;2023-03-19T14:17:23;22.30;57.90
41437;DHT22;27178;49.460;10.850;2023-03-19T14:19:53;22.20;57.70
41437;DHT22;27178;49.460;10.850;2023-03-19T14:22:34;22.20;58.20
41437;DHT22;27178;49.460;10.850;2023-03-19T14:25:14;22.10;57.20
41437;DHT22;27178;49.460;10.850;2023-03-19T14:27:46;22.00;57.40
41437;DHT22;27178;49.460;10.850;2023-03-19T14:30:23;21.80;57.90
41437;DHT22;27178;49.460;10.850;2023-03-19T14:32:58;21.70;57.90
41437;DHT22;27178;49.460;10.850;2023-03-19T14:35:27;21.60;58.10
41437;DHT22;27178;49.460;10.850;2023-03-19T14:37:56;21.50;58.10
41437;DHT22;27178;49.460;10.850;2023-03-19T14:40:28;21.40;58.40
41437;DHT22;27178;49.460;10.850;2023-03-19T14:43:03;21.40;58.80
41437;DHT22;27178;49.460;10.850;2023-03-19T14:45:43;21.50;59.00
41437;DHT22;27178;49.460;10.850;2023-03-19T14:48:44;21.50;58.60
41437;DHT22;27178;49.460;10.850;2023-03-19T14:51:59;21.70;56.80
41437;DHT22;27178;49.460;10.850;2023-03-19T14:54:35;21.70;57.60
41437;DHT22;27178;49.460;10.850;2023-03-19T14:57:06;21.80;57.50
41437;DHT22;27178;49.460;10.850;2023-03-19T14:59:36;21.80;58.20
41437;DHT22;27178;49.460;10.850;2023-03-19T15:05:00;22.00;58.10
41437;DHT22;27178;49.460;10.850;2023-03-19T15:07:31;22.10;58.60
41437;DHT22;27178;49.460;10.850;2023-03-19T15:10:01;22.30;58.30
41437;DHT22;27178;49.460;10.850;2023-03-19T15:13:05;22.40;57.70
41437;DHT22;27178;49.460;10.850;2023-03-19T15:15:42;22.50;56.70
41437;DHT22;27178;49.460;10.850;2023-03-19T15:18:16;22.60;57.10
41437;DHT22;27178;49.460;10.850;2023-03-19T15:20:50;22.60;56.70
41437;DHT22;27178;49.460;10.850;2023-03-19T15:23:24;22.60;56.70
41437;DHT22;27178;49.460;10.850;2023-03-19T15:25:55;22.70;56.90
41437;DHT22;27178;49.460;10.850;2023-03-19T15:28:27;22.70;57.20
41437;DHT22;27178;49.460;10.850;2023-03-19T15:31:00;22.80;57.20
41437;DHT22;27178;49.460;10.850;2023-03-19T15:33:49;22.90;56.30
41437;DHT22;27178;49.460;10.850;2023-03-19T15:36:22;23.10;56.60
41437;DHT22;27178;49.460;10.850;2023-03-19T15:38:54;23.10;56.20
41437;DHT22;27178;49.460;10.850;2023-03-19T15:41:26;23.20;56.00
41437;DHT22;27178;49.460;10.850;2023-03-19T15:43:55;23.30;56.00
41437;DHT22;27178;49.460;10.850;2023-03-19T15:46:27;23.30;55.40
41437;DHT22;27178;49.460;10.850;2023-03-19T15:49:01;23.30;55.40
41437;DHT22;27178;49.460;10.850;2023-03-19T15:51:32;23.20;55.20